createdAt,value
2019-03-11T00:00:54.540Z,100142.00
2019-03-11T00:03:27.168Z,100136.00
2019-03-11T00:05:56.849Z,100136.00
2019-03-11T00:08:26.514Z,100133.00
2019-03-11T00:10:56.190Z,100134.00
2019-03-11T00:13:26.061Z,100142.00
2019-03-11T00:16:15.299Z,100148.00
2019-03-11T00:18:44.959Z,100136.00
2019-03-11T00:21:14.776Z,100146.00
2019-03-11T00:23:44.535Z,100133.00
2019-03-11T00:26:17.186Z,100147.00
2019-03-11T00:28:46.843Z,100144.00
2019-03-11T00:31:16.550Z,100137.00
2019-03-11T00:33:46.208Z,100139.00
2019-03-11T00:36:15.929Z,100145.00
2019-03-11T00:38:45.627Z,100149.00
2019-03-11T00:41:15.277Z,100140.00
2019-03-11T00:43:44.987Z,100156.00
2019-03-11T00:46:14.673Z,100143.00
2019-03-11T00:48:44.402Z,100158.00
2019-03-11T00:51:14.068Z,100155.00
2019-03-11T00:53:45.620Z,100161.00
2019-03-11T00:56:15.267Z,100159.00
2019-03-11T00:58:44.989Z,100164.00
2019-03-11T01:01:15.343Z,100168.00
2019-03-11T01:03:45.012Z,100160.00
2019-03-11T01:06:14.961Z,100159.00
2019-03-11T01:08:44.628Z,100168.00
2019-03-11T01:11:14.663Z,100176.00
2019-03-11T01:13:44.317Z,100184.00
2019-03-11T01:16:14.518Z,100173.00
2019-03-11T01:18:44.179Z,100177.00
2019-03-11T01:21:13.834Z,100174.00
2019-03-11T01:23:43.647Z,100173.00
2019-03-11T01:26:13.375Z,100162.00
2019-03-11T01:28:43.035Z,100165.00
2019-03-11T01:31:12.704Z,100164.00
2019-03-11T01:33:43.306Z,100161.00
2019-03-11T01:36:12.977Z,100171.00
2019-03-11T01:38:42.681Z,100170.00
2019-03-11T01:41:12.366Z,100181.00
2019-03-11T01:43:42.061Z,100183.00
2019-03-11T01:46:11.833Z,100184.00
2019-03-11T01:48:41.627Z,100200.00
2019-03-11T01:51:11.297Z,100182.00
2019-03-11T01:53:42.444Z,100208.00
2019-03-11T01:56:12.098Z,100199.00
2019-03-11T01:58:41.759Z,100186.00
2019-03-11T02:01:11.461Z,100187.00
2019-03-11T02:03:41.126Z,100199.00
2019-03-11T02:06:10.795Z,100190.00
2019-03-11T02:08:40.482Z,100181.00
2019-03-11T02:11:10.158Z,100186.00
2019-03-11T02:13:39.820Z,100188.00
2019-03-11T02:16:10.315Z,100174.00
2019-03-11T02:18:39.991Z,100178.00
2019-03-11T02:21:09.646Z,100155.00
2019-03-11T02:23:39.423Z,100186.00
2019-03-11T02:26:09.110Z,100172.00
2019-03-11T02:28:38.762Z,100174.00
2019-03-11T02:31:08.442Z,100192.00
2019-03-11T02:33:38.130Z,100196.00
2019-03-11T02:36:07.855Z,100188.00
2019-03-11T02:38:37.621Z,100184.00
2019-03-11T02:41:07.264Z,100191.00
2019-03-11T02:43:36.924Z,100201.00
2019-03-11T02:46:06.917Z,100193.00
2019-03-11T02:48:36.569Z,100204.00
2019-03-11T02:51:06.316Z,100205.00
2019-03-11T02:53:36.256Z,100215.00
2019-03-11T02:56:05.730Z,100218.00
2019-03-11T02:58:35.403Z,100216.00
2019-03-11T03:01:16.252Z,100219.00
2019-03-11T03:03:53.241Z,100227.00
2019-03-11T03:06:22.905Z,100227.00
2019-03-11T03:08:52.573Z,100228.00
2019-03-11T03:11:22.215Z,100230.00
2019-03-11T03:13:51.910Z,100227.00
2019-03-11T03:16:21.556Z,100232.00
2019-03-11T03:18:51.236Z,100249.00
2019-03-11T03:21:20.923Z,100238.00
2019-03-11T03:23:50.591Z,100235.00
2019-03-11T03:26:20.242Z,100249.00
2019-03-11T03:28:49.932Z,100247.00
2019-03-11T03:31:19.577Z,100250.00
2019-03-11T03:33:49.250Z,100239.00
2019-03-11T03:36:18.945Z,100243.00
2019-03-11T03:38:48.617Z,100237.00
2019-03-11T03:41:18.286Z,100271.00
2019-03-11T03:43:47.960Z,100275.00
2019-03-11T03:46:19.705Z,100265.00
2019-03-11T03:48:49.758Z,100280.00
2019-03-11T03:51:19.497Z,100291.00
2019-03-11T03:53:49.161Z,100306.00
2019-03-11T03:56:18.841Z,100307.00
2019-03-11T03:58:48.555Z,100304.00
2019-03-11T04:01:18.197Z,100308.00
2019-03-11T04:03:47.869Z,100331.00
2019-03-11T04:06:17.563Z,100345.00
2019-03-11T04:08:48.657Z,100335.00
2019-03-11T04:11:18.308Z,100337.00
2019-03-11T04:13:48.009Z,100317.00
2019-03-11T04:16:17.851Z,100332.00
2019-03-11T04:18:52.824Z,100310.00
2019-03-11T04:21:22.701Z,100314.00
2019-03-11T04:23:52.468Z,100341.00
2019-03-11T04:26:23.578Z,100341.00
2019-03-11T04:28:53.259Z,100340.00
2019-03-11T04:31:30.584Z,100346.00
2019-03-11T04:34:00.274Z,100355.00
2019-03-11T04:36:29.916Z,100349.00
2019-03-11T04:38:59.582Z,100351.00
2019-03-11T04:41:29.273Z,100372.00
2019-03-11T04:43:58.959Z,100380.00
2019-03-11T04:46:28.603Z,100383.00
2019-03-11T04:48:58.280Z,100377.00
2019-03-11T04:51:28.965Z,100372.00
2019-03-11T04:53:58.632Z,100382.00
2019-03-11T04:56:28.321Z,100391.00
2019-03-11T04:59:05.291Z,100391.00
2019-03-11T05:01:34.989Z,100392.00
2019-03-11T05:04:04.654Z,100417.00
2019-03-11T05:06:34.318Z,100412.00
2019-03-11T05:09:07.538Z,100421.00
2019-03-11T05:11:37.269Z,100416.00
2019-03-11T05:14:07.126Z,100433.00
2019-03-11T05:16:36.821Z,100418.00
2019-03-11T05:19:06.480Z,100437.00
2019-03-11T05:21:36.145Z,100438.00
2019-03-11T05:24:05.916Z,100434.00
2019-03-11T05:26:35.562Z,100449.00
2019-03-11T05:29:05.293Z,100445.00
2019-03-11T05:31:34.978Z,100453.00
2019-03-11T05:34:05.050Z,100460.00
2019-03-11T05:36:34.708Z,100457.00
2019-03-11T05:39:05.287Z,100466.00
2019-03-11T05:41:34.937Z,100481.00
2019-03-11T05:44:04.688Z,100479.00
2019-03-11T05:46:34.367Z,100488.00
2019-03-11T05:49:04.023Z,100498.00
2019-03-11T05:51:33.692Z,100497.00
2019-03-11T05:54:03.370Z,100507.00
2019-03-11T05:56:33.022Z,100507.00
2019-03-11T05:59:02.755Z,100524.00
2019-03-11T06:01:32.444Z,100521.00
2019-03-11T06:04:02.096Z,100518.00
2019-03-11T06:06:33.211Z,100509.00
2019-03-11T06:09:02.959Z,100530.00
2019-03-11T06:11:32.605Z,100530.00
2019-03-11T06:14:02.292Z,100535.00
2019-03-11T06:16:31.968Z,100556.00
2019-03-11T06:19:01.631Z,100545.00
2019-03-11T06:21:32.922Z,100562.00
2019-03-11T06:24:02.614Z,100571.00
2019-03-11T06:26:33.754Z,100576.00
2019-03-11T06:29:03.401Z,100588.00
2019-03-11T06:31:33.357Z,100582.00
2019-03-11T06:34:03.015Z,100580.00
2019-03-11T06:36:34.672Z,100609.00
2019-03-11T06:39:08.213Z,100593.00
2019-03-11T06:41:37.880Z,100612.00
2019-03-11T06:44:07.550Z,100621.00
2019-03-11T06:46:37.296Z,100619.00
2019-03-11T06:49:06.960Z,100618.00
2019-03-11T06:51:36.620Z,100605.00
2019-03-11T06:59:51.423Z,100604.00
2019-03-11T07:05:20.276Z,100634.00
2019-03-11T07:07:47.932Z,100624.00
2019-03-11T07:10:18.141Z,100609.00
2019-03-11T07:12:48.106Z,100612.00
2019-03-11T07:15:18.070Z,100613.00
2019-03-11T07:17:47.717Z,100613.00
2019-03-11T07:20:20.558Z,100613.00
2019-03-11T07:22:50.202Z,100621.00
2019-03-11T07:25:21.007Z,100627.00
2019-03-11T07:27:50.673Z,100618.00
2019-03-11T07:30:21.118Z,100616.00
2019-03-11T07:32:50.771Z,100648.00
2019-03-11T07:35:20.461Z,100626.00
2019-03-11T07:37:51.595Z,100645.00
2019-03-11T07:40:29.636Z,100669.00
2019-03-11T07:42:54.042Z,100654.00
2019-03-11T07:45:23.699Z,100663.00
2019-03-11T07:47:54.571Z,100664.00
2019-03-11T07:50:24.235Z,100657.00
2019-03-11T07:52:54.213Z,100677.00
2019-03-11T07:55:23.853Z,100666.00
2019-03-11T07:57:53.521Z,100695.00
2019-03-11T08:00:23.196Z,100687.00
2019-03-11T08:02:52.937Z,100693.00
2019-03-11T08:05:22.612Z,100693.00
2019-03-11T08:07:52.409Z,100700.00
2019-03-11T08:10:26.145Z,100709.00
2019-03-11T08:12:55.815Z,100696.00
2019-03-11T08:15:25.456Z,100743.00
2019-03-11T08:17:55.105Z,100738.00
2019-03-11T08:20:24.779Z,100722.00
2019-03-11T08:22:54.437Z,100777.00
2019-03-11T08:25:24.086Z,100736.00
2019-03-11T08:27:53.756Z,100739.00
2019-03-11T08:30:24.402Z,100694.00
2019-03-11T08:32:54.039Z,100753.00
2019-03-11T08:35:23.737Z,100759.00
2019-03-11T08:37:53.419Z,100748.00
2019-03-11T08:40:23.097Z,100771.00
2019-03-11T08:42:52.857Z,100767.00
2019-03-11T08:45:22.527Z,100788.00
2019-03-11T08:47:52.781Z,100774.00
2019-03-11T08:50:22.463Z,100793.00
2019-03-11T08:52:52.439Z,100791.00
2019-03-11T08:55:22.083Z,100794.00
2019-03-11T08:57:51.755Z,100798.00
2019-03-11T09:00:23.884Z,100794.00
2019-03-11T09:02:53.560Z,100820.00
2019-03-11T09:05:24.323Z,100817.00
2019-03-11T09:07:54.110Z,100821.00
2019-03-11T09:10:23.772Z,100833.00
2019-03-11T09:12:53.560Z,100853.00
2019-03-11T09:15:23.573Z,100832.00
2019-03-11T09:17:53.225Z,100846.00
2019-03-11T09:20:22.909Z,100845.00
2019-03-11T09:22:52.553Z,100862.00
2019-03-11T09:25:30.642Z,100856.00
2019-03-11T09:28:00.312Z,100852.00
2019-03-11T09:30:29.991Z,100867.00
2019-03-11T09:32:59.662Z,100866.00
2019-03-11T09:35:29.315Z,100873.00
2019-03-11T09:37:58.958Z,100871.00
2019-03-11T09:40:28.799Z,100864.00
2019-03-11T09:42:58.460Z,100883.00
2019-03-11T09:45:28.107Z,100893.00
2019-03-11T09:47:57.906Z,100889.00
2019-03-11T09:50:27.556Z,100911.00
2019-03-11T09:52:57.239Z,100915.00
2019-03-11T09:55:29.299Z,100904.00
2019-03-11T09:57:58.946Z,100909.00
2019-03-11T10:00:34.968Z,100906.00
2019-03-11T10:03:05.024Z,100925.00
2019-03-11T10:05:34.712Z,100978.00
2019-03-11T10:08:04.376Z,100899.00
2019-03-11T10:10:34.105Z,100930.00
2019-03-11T10:13:04.993Z,100943.00
2019-03-11T10:15:34.681Z,100936.00
2019-03-11T10:18:04.324Z,100926.00
2019-03-11T10:20:33.986Z,100932.00
2019-03-11T10:23:03.680Z,100937.00
2019-03-11T10:25:33.337Z,100949.00
2019-03-11T10:28:03.818Z,100954.00
2019-03-11T10:30:33.514Z,100920.00
2019-03-11T10:33:03.212Z,100946.00
2019-03-11T10:35:33.167Z,100970.00
2019-03-11T10:38:03.205Z,100931.00
2019-03-11T10:40:33.645Z,100928.00
2019-03-11T10:43:03.403Z,100925.00
2019-03-11T10:45:34.755Z,100928.00
2019-03-11T10:48:04.816Z,100951.00
2019-03-11T10:50:34.472Z,100945.00
2019-03-11T10:53:04.139Z,100960.00
2019-03-11T10:55:33.809Z,100956.00
2019-03-11T10:58:03.526Z,100961.00
2019-03-11T11:00:33.875Z,100959.00
2019-03-11T11:03:03.831Z,100972.00
2019-03-11T11:05:33.483Z,100967.00
2019-03-11T11:08:03.173Z,100975.00
2019-03-11T11:10:33.060Z,100974.00
2019-03-11T11:13:02.789Z,100967.00
2019-03-11T11:15:34.359Z,100994.00
2019-03-11T11:18:04.193Z,101010.00
2019-03-11T11:20:33.864Z,101013.00
2019-03-11T11:23:03.972Z,100988.00
2019-03-11T11:25:33.645Z,101057.00
2019-03-11T11:28:03.806Z,101010.00
2019-03-11T11:30:33.754Z,101015.00
2019-03-11T11:33:03.412Z,101005.00
2019-03-11T11:35:33.168Z,101005.00
2019-03-11T11:38:02.911Z,101020.00
2019-03-11T11:40:33.149Z,101009.00
2019-03-11T11:43:03.011Z,101033.00
2019-03-11T11:45:34.203Z,101003.00
2019-03-11T11:48:03.857Z,101023.00
2019-03-11T11:50:33.581Z,101046.00
2019-03-11T11:53:03.289Z,101022.00
2019-03-11T11:55:32.950Z,101030.00
2019-03-11T11:58:02.602Z,101029.00
2019-03-11T12:00:40.621Z,101035.00
2019-03-11T12:03:10.347Z,101033.00
2019-03-11T12:05:40.024Z,101052.00
2019-03-11T12:08:09.813Z,101052.00
2019-03-11T12:10:39.543Z,101053.00
2019-03-11T12:13:12.067Z,101042.00
2019-03-11T12:15:41.745Z,101060.00
2019-03-11T12:18:11.402Z,101055.00
2019-03-11T12:20:41.135Z,101056.00
2019-03-11T12:23:10.821Z,101053.00
2019-03-11T12:25:40.490Z,101050.00
2019-03-11T12:28:10.206Z,101058.00
2019-03-11T12:30:39.976Z,101061.00
2019-03-11T12:33:10.142Z,101065.00
2019-03-11T12:35:39.823Z,101071.00
2019-03-11T12:38:09.511Z,101070.00
2019-03-11T12:40:39.179Z,101079.00
2019-03-11T12:43:08.848Z,101070.00
2019-03-11T12:45:38.536Z,101068.00
2019-03-11T12:48:08.231Z,101073.00
2019-03-11T12:50:37.864Z,101091.00
2019-03-11T12:53:07.550Z,101084.00
2019-03-11T12:55:38.222Z,101078.00
2019-03-11T12:58:07.892Z,101103.00
2019-03-11T13:00:37.574Z,101078.00
2019-03-11T13:03:07.252Z,101078.00
2019-03-11T13:05:36.921Z,101079.00
2019-03-11T13:08:06.629Z,101067.00
2019-03-11T13:10:36.301Z,101087.00
2019-03-11T13:13:05.971Z,101070.00
2019-03-11T13:15:35.668Z,101080.00
2019-03-11T13:18:26.396Z,101095.00
2019-03-11T13:20:56.117Z,101058.00
2019-03-11T13:23:29.308Z,101084.00
2019-03-11T13:25:58.981Z,101075.00
2019-03-11T13:28:29.050Z,101074.00
2019-03-11T13:30:58.893Z,101061.00
2019-03-11T13:33:28.554Z,101082.00
2019-03-11T13:35:58.316Z,101095.00
2019-03-11T13:38:27.987Z,101056.00
2019-03-11T13:40:57.671Z,101060.00
2019-03-11T13:43:27.358Z,101075.00
2019-03-11T13:45:57.029Z,101070.00
2019-03-11T13:48:28.152Z,101058.00
2019-03-11T13:50:57.838Z,101061.00
2019-03-11T13:53:28.745Z,101062.00
2019-03-11T13:55:58.427Z,101070.00
2019-03-11T13:58:28.126Z,101052.00
2019-03-11T14:00:57.939Z,101061.00
2019-03-11T14:03:27.618Z,101042.00
2019-03-11T14:05:57.954Z,101040.00
2019-03-11T14:08:27.697Z,101050.00
2019-03-11T14:10:57.371Z,101042.00
2019-03-11T14:13:27.130Z,101035.00
2019-03-11T14:15:57.213Z,101040.00
2019-03-11T14:18:28.025Z,101027.00
2019-03-11T14:20:57.795Z,101036.00
2019-03-11T14:23:27.458Z,101039.00
2019-03-11T14:25:57.117Z,101041.00
2019-03-11T14:28:46.202Z,101034.00
2019-03-11T14:31:17.529Z,101025.00
2019-03-11T14:33:47.183Z,101044.00
2019-03-11T14:36:16.864Z,101036.00
2019-03-11T14:38:46.527Z,101022.00
2019-03-11T14:41:16.301Z,101036.00
2019-03-11T14:43:46.997Z,101013.00
2019-03-11T14:46:16.656Z,101023.00
2019-03-11T14:48:46.315Z,101004.00
2019-03-11T14:51:17.540Z,101015.00
2019-03-11T14:53:47.196Z,101008.00
2019-03-11T14:56:17.592Z,101011.00
2019-03-11T14:58:47.087Z,101011.00
2019-03-11T15:01:16.761Z,101009.00
2019-03-11T15:03:46.441Z,100989.00
2019-03-11T15:06:16.111Z,101006.00
2019-03-11T15:08:45.769Z,100987.00
2019-03-11T15:11:15.514Z,101002.00
2019-03-11T15:13:46.530Z,101010.00
2019-03-11T15:16:18.496Z,101018.00
2019-03-11T15:18:49.939Z,101037.00
2019-03-11T15:21:19.621Z,101030.00
2019-03-11T15:23:50.936Z,101019.00
2019-03-11T15:26:25.138Z,101019.00
2019-03-11T15:28:52.026Z,101008.00
2019-03-11T15:31:21.714Z,100993.00
2019-03-11T15:33:51.370Z,100991.00
2019-03-11T15:36:23.096Z,100976.00
2019-03-11T15:38:52.523Z,100984.00
2019-03-11T15:41:22.190Z,100976.00
2019-03-11T15:43:51.927Z,100967.00
2019-03-11T15:46:21.617Z,100957.00
2019-03-11T15:48:51.375Z,100948.00
2019-03-11T15:51:21.141Z,100941.00
2019-03-11T15:53:52.277Z,100930.00
2019-03-11T15:56:22.051Z,100930.00
2019-03-11T15:58:51.762Z,100925.00
2019-03-11T16:01:25.909Z,100927.00
2019-03-11T16:03:55.566Z,100924.00
2019-03-11T16:06:44.501Z,100929.00
2019-03-11T16:09:19.098Z,100932.00
2019-03-11T16:11:45.540Z,100923.00
2019-03-11T16:14:15.303Z,100925.00
2019-03-11T16:16:44.991Z,100927.00
2019-03-11T16:19:14.730Z,100917.00
2019-03-11T16:21:46.092Z,100925.00
2019-03-11T16:24:15.553Z,100920.00
2019-03-11T16:26:45.212Z,100924.00
2019-03-11T16:29:14.915Z,100922.00
2019-03-11T16:31:44.593Z,100906.00
2019-03-11T16:34:15.718Z,100914.00
2019-03-11T16:36:45.403Z,100907.00
2019-03-11T16:39:15.373Z,100920.00
2019-03-11T16:41:45.100Z,100932.00
2019-03-11T16:44:14.851Z,100919.00
2019-03-11T16:46:44.587Z,100928.00
2019-03-11T16:49:16.942Z,100919.00
2019-03-11T16:51:48.821Z,100929.00
2019-03-11T16:54:18.349Z,100918.00
2019-03-11T16:56:49.256Z,100935.00
2019-03-11T16:59:20.370Z,100931.00
2019-03-11T17:01:50.071Z,100939.00
2019-03-11T17:04:19.737Z,100932.00
2019-03-11T17:06:49.434Z,100952.00
2019-03-11T17:09:19.157Z,100941.00
2019-03-11T17:11:48.773Z,100935.00
2019-03-11T17:14:18.457Z,100922.00
2019-03-11T17:16:50.719Z,100929.00
2019-03-11T17:19:19.488Z,100936.00
2019-03-11T17:21:49.182Z,100918.00
2019-03-11T17:24:21.217Z,100913.00
2019-03-11T17:26:50.870Z,100894.00
2019-03-11T17:29:20.817Z,100898.00
2019-03-11T17:31:50.482Z,100875.00
2019-03-11T17:34:21.613Z,100874.00
2019-03-11T17:36:51.329Z,100856.00
2019-03-11T17:39:22.483Z,100859.00
2019-03-11T17:41:52.223Z,100850.00
2019-03-11T17:44:21.921Z,100845.00
2019-03-11T17:46:51.581Z,100850.00
2019-03-11T17:49:21.266Z,100860.00
2019-03-11T17:51:51.090Z,100853.00
2019-03-11T17:54:22.508Z,100851.00
2019-03-11T17:56:52.435Z,100854.00
2019-03-11T17:59:22.187Z,100851.00
2019-03-11T18:01:51.868Z,100837.00
2019-03-11T18:04:21.531Z,100843.00
2019-03-11T18:06:51.230Z,100848.00
2019-03-11T18:09:21.283Z,100844.00
2019-03-11T18:11:50.928Z,100839.00
2019-03-11T18:14:21.399Z,100839.00
2019-03-11T18:16:51.048Z,100833.00
2019-03-11T18:19:20.759Z,100828.00
2019-03-11T18:21:50.506Z,100826.00
2019-03-11T18:24:20.179Z,100828.00
2019-03-11T18:26:51.754Z,100819.00
2019-03-11T18:29:21.480Z,100808.00
2019-03-11T18:32:01.234Z,100815.00
2019-03-11T18:34:22.537Z,100810.00
2019-03-11T18:36:56.479Z,100803.00
2019-03-11T18:39:27.178Z,100799.00
2019-03-11T18:41:58.430Z,100798.00
2019-03-11T18:44:29.780Z,100802.00
2019-03-11T18:47:00.618Z,100796.00
2019-03-11T18:49:31.320Z,100791.00
2019-03-11T18:52:02.274Z,100783.00
2019-03-11T18:54:31.941Z,100781.00
2019-03-11T18:57:01.637Z,100797.00
2019-03-11T18:59:31.305Z,100798.00
2019-03-11T19:02:00.994Z,100770.00
2019-03-11T19:04:30.640Z,100788.00
2019-03-11T19:07:00.517Z,100793.00
2019-03-11T19:09:35.022Z,100792.00
2019-03-11T19:12:04.748Z,100783.00
2019-03-11T19:14:34.384Z,100779.00
2019-03-11T19:17:07.446Z,100772.00
2019-03-11T19:19:46.262Z,100767.00
2019-03-11T19:22:09.885Z,100769.00
2019-03-11T19:24:39.573Z,100763.00
2019-03-11T19:27:09.409Z,100769.00
2019-03-11T19:29:39.185Z,100765.00
2019-03-11T19:32:09.270Z,100747.00
2019-03-11T19:34:41.853Z,100748.00
2019-03-11T19:37:11.524Z,100737.00
2019-03-11T19:39:41.210Z,100734.00
2019-03-11T19:42:10.888Z,100737.00
2019-03-11T19:44:40.585Z,100726.00
2019-03-11T19:47:12.417Z,100716.00
2019-03-11T19:49:42.299Z,100719.00
2019-03-11T19:52:12.207Z,100709.00
2019-03-11T19:54:41.912Z,100705.00
2019-03-11T19:57:11.632Z,100707.00
2019-03-11T19:59:41.595Z,100696.00
2019-03-11T20:02:11.363Z,100699.00
2019-03-11T20:04:41.198Z,100682.00
2019-03-11T20:07:10.919Z,100691.00
2019-03-11T20:09:40.584Z,100686.00
2019-03-11T20:12:10.684Z,100677.00
2019-03-11T20:14:40.374Z,100676.00
2019-03-11T20:17:10.251Z,100674.00
2019-03-11T20:19:39.945Z,100676.00
2019-03-11T20:22:09.941Z,100662.00
2019-03-11T20:24:39.684Z,100664.00
2019-03-11T20:27:09.515Z,100659.00
2019-03-11T20:29:39.535Z,100643.00
2019-03-11T20:32:09.308Z,100634.00
2019-03-11T20:34:39.061Z,100638.00
2019-03-11T20:37:08.758Z,100632.00
2019-03-11T20:39:38.520Z,100611.00
2019-03-11T20:42:08.403Z,100601.00
2019-03-11T20:44:40.635Z,100599.00
2019-03-11T20:47:10.670Z,100588.00
2019-03-11T20:49:40.469Z,100583.00
2019-03-11T20:52:11.366Z,100575.00
2019-03-11T20:54:42.865Z,100569.00
2019-03-11T20:57:12.613Z,100561.00
2019-03-11T20:59:42.851Z,100570.00
2019-03-11T21:02:12.769Z,100561.00
2019-03-11T21:04:42.454Z,100552.00
2019-03-11T21:07:12.213Z,100561.00
2019-03-11T21:09:42.147Z,100553.00
2019-03-11T21:12:11.798Z,100547.00
2019-03-11T21:14:41.567Z,100546.00
2019-03-11T21:17:11.247Z,100541.00
2019-03-11T21:19:41.415Z,100535.00
2019-03-11T21:22:11.106Z,100519.00
2019-03-11T21:24:40.755Z,100514.00
2019-03-11T21:27:10.541Z,100502.00
2019-03-11T21:29:43.350Z,100498.00
2019-03-11T21:32:13.044Z,100502.00
2019-03-11T21:34:44.008Z,100493.00
2019-03-11T21:37:15.163Z,100484.00
2019-03-11T21:39:45.119Z,100480.00
2019-03-11T21:42:14.873Z,100475.00
2019-03-11T21:44:44.539Z,100470.00
2019-03-11T21:47:14.294Z,100462.00
2019-03-11T21:49:43.960Z,100458.00
2019-03-11T21:52:13.791Z,100440.00
2019-03-11T21:54:43.672Z,100431.00
2019-03-11T21:57:13.665Z,100428.00
2019-03-11T21:59:43.484Z,100420.00
2019-03-11T22:02:13.416Z,100410.00
2019-03-11T22:04:43.093Z,100402.00
2019-03-11T22:07:12.760Z,100393.00
2019-03-11T22:09:42.498Z,100403.00
2019-03-11T22:12:13.604Z,100412.00
2019-03-11T22:14:47.069Z,100402.00
2019-03-11T22:17:16.742Z,100393.00
2019-03-11T22:19:46.426Z,100393.00
2019-03-11T22:22:16.090Z,100384.00
2019-03-11T22:24:45.880Z,100374.00
2019-03-11T22:27:15.565Z,100352.00
2019-03-11T22:29:45.240Z,100336.00
2019-03-11T22:32:14.979Z,100310.00
2019-03-11T22:34:45.284Z,100315.00
2019-03-11T22:37:14.933Z,100312.00
2019-03-11T22:39:44.608Z,100295.00
2019-03-11T22:42:14.293Z,100288.00
2019-03-11T22:44:43.957Z,100283.00
2019-03-11T22:47:13.695Z,100276.00
2019-03-11T22:49:43.211Z,100262.00
2019-03-11T22:52:14.646Z,100268.00
2019-03-11T22:54:44.308Z,100254.00
2019-03-11T22:57:13.998Z,100255.00
2019-03-11T22:59:43.718Z,100250.00
2019-03-11T23:02:15.649Z,100252.00
2019-03-11T23:04:45.415Z,100259.00
2019-03-11T23:07:15.091Z,100245.00
2019-03-11T23:09:45.809Z,100241.00
2019-03-11T23:12:15.381Z,100229.00
2019-03-11T23:14:45.112Z,100211.00
2019-03-11T23:17:14.765Z,100207.00
2019-03-11T23:19:45.115Z,100196.00
2019-03-11T23:22:14.774Z,100189.00
2019-03-11T23:24:44.455Z,100192.00
2019-03-11T23:27:14.345Z,100173.00
2019-03-11T23:29:44.024Z,100171.00
2019-03-11T23:32:13.698Z,100168.00
2019-03-11T23:34:44.990Z,100169.00
2019-03-11T23:37:14.656Z,100164.00
2019-03-11T23:39:44.323Z,100156.00
2019-03-11T23:42:14.006Z,100143.00
2019-03-11T23:44:45.294Z,100138.00
2019-03-11T23:47:14.877Z,100133.00
2019-03-11T23:49:45.391Z,100127.00
2019-03-11T23:52:16.553Z,100122.00
2019-03-11T23:54:46.904Z,100117.00
2019-03-11T23:57:17.464Z,100106.00
2019-03-11T23:59:48.444Z,100101.00
